Time;durP1;ratioP1;P1;durP2;ratioP2;P2;SDS_P1;SDS_P2;PMS_P1;PMS_P2;Temp;Humidity;BMP_temperature;BMP_pressure;BME280_temperature;BME280_humidity;BME280_pressure;Samples;Min_cycle;Max_cycle;Signal;HPM_P1;HPM_P2
2022/08/13 00:00:44;;;;;;;7.38;3.25;;;20.40;99.90;;;;;;5054530;28;19928;-68
2022/08/13 00:03:13;;;;;;;5.30;3.30;;;20.30;99.90;;;;;;5054765;28;20115;-66
2022/08/13 00:05:39;;;;;;;4.90;3.40;;;20.30;99.90;;;;;;5054103;28;20045;-69
2022/08/13 00:08:05;;;;;;;6.07;3.60;;;20.30;99.90;;;;;;5036236;28;20128;-68
2022/08/13 00:10:31;;;;;;;8.88;3.47;;;20.30;99.90;;;;;;5053637;28;20047;-68
2022/08/13 00:12:57;;;;;;;7.65;3.35;;;20.30;99.90;;;;;;5036339;28;20052;-67
2022/08/13 00:15:28;;;;;;;11.35;3.30;;;20.30;99.90;;;;;;5054205;28;20098;-68
2022/08/13 00:17:57;;;;;;;6.15;3.30;;;20.20;99.90;;;;;;5019399;28;20109;-68
2022/08/13 00:20:26;;;;;;;5.45;3.22;;;20.20;99.90;;;;;;5053727;28;20449;-68
2022/08/13 00:22:58;;;;;;;5.85;3.90;;;20.20;99.90;;;;;;5036049;28;20044;-68
2022/08/13 00:25:24;;;;;;;5.13;3.50;;;20.10;99.90;;;;;;5035727;28;20053;-68
2022/08/13 00:27:56;;;;;;;10.57;3.20;;;20.10;99.90;;;;;;5053305;28;20123;-68
2022/08/13 00:30:28;;;;;;;9.63;3.50;;;20.00;99.90;;;;;;5040083;28;20072;-68
2022/08/13 00:32:54;;;;;;;5.45;3.85;;;20.00;99.90;;;;;;5036093;28;20041;-68
2022/08/13 00:35:20;;;;;;;8.68;3.53;;;20.00;99.90;;;;;;5053455;28;20403;-69
2022/08/13 00:37:48;;;;;;;9.23;3.72;;;19.90;99.90;;;;;;5055559;28;20189;-67
2022/08/13 00:40:17;;;;;;;8.77;3.65;;;19.90;99.90;;;;;;5064790;28;20407;-68
2022/08/13 00:42:43;;;;;;;10.38;3.65;;;19.90;99.90;;;;;;5053496;28;20067;-68
2022/08/13 00:45:09;;;;;;;7.30;3.50;;;19.90;99.90;;;;;;5053441;28;20037;-68
2022/08/13 00:50:23;;;;;;;12.68;4.75;;;19.80;99.90;;;;;;5053241;28;20415;-70
2022/08/13 00:52:49;;;;;;;6.55;3.58;;;19.80;99.90;;;;;;5035545;28;20052;-68
2022/08/13 00:55:18;;;;;;;5.45;3.92;;;19.80;99.90;;;;;;5053439;28;20052;-68
2022/08/13 00:57:46;;;;;;;7.90;3.85;;;19.70;99.90;;;;;;5035695;28;20159;-67
2022/08/13 01:00:16;;;;;;;5.82;3.63;;;19.80;99.90;;;;;;5035322;28;20058;-68
2022/08/13 01:02:44;;;;;;;6.32;4.40;;;19.70;99.90;;;;;;5035004;28;20126;-69
2022/08/13 01:05:11;;;;;;;6.95;3.45;;;19.70;99.90;;;;;;5035373;28;20055;-70
2022/08/13 01:07:41;;;;;;;7.93;3.65;;;19.60;99.90;;;;;;5035132;28;20170;-68
2022/08/13 01:10:09;;;;;;;3.90;3.47;;;19.60;99.90;;;;;;5034897;28;20126;-68
2022/08/13 01:12:39;;;;;;;13.73;3.75;;;19.50;99.90;;;;;;5052724;28;20049;-67
2022/08/13 01:15:12;;;;;;;5.25;3.78;;;19.50;99.90;;;;;;5035828;28;20399;-68
2022/08/13 01:17:45;;;;;;;8.18;3.85;;;19.50;99.90;;;;;;5052762;28;20483;-68
2022/08/13 01:20:21;;;;;;;7.22;4.00;;;19.60;99.90;;;;;;5053261;28;20072;-69
2022/08/13 01:22:52;;;;;;;9.43;4.20;;;19.60;99.90;;;;;;5018697;28;20123;-69
2022/08/13 01:25:22;;;;;;;7.32;4.07;;;19.40;99.90;;;;;;5052791;28;20063;-68
2022/08/13 01:27:49;;;;;;;5.03;3.83;;;19.40;99.90;;;;;;5052707;28;20095;-67
2022/08/13 01:30:17;;;;;;;10.52;3.83;;;19.40;99.90;;;;;;5052415;28;20037;-67
2022/08/13 01:32:43;;;;;;;7.80;4.22;;;19.40;99.90;;;;;;5034752;28;20044;-66
2022/08/13 01:35:09;;;;;;;10.35;3.72;;;19.30;99.90;;;;;;5052335;28;20037;-68
2022/08/13 01:37:37;;;;;;;6.45;3.97;;;19.30;99.90;;;;;;5054337;28;20048;-68
2022/08/13 01:40:05;;;;;;;7.03;3.60;;;19.30;99.90;;;;;;5035324;28;20613;-68
2022/08/13 01:42:37;;;;;;;;;;;19.20;99.90;;;;;;5054624;28;20084;-69
2022/08/13 01:45:04;;;;;;;5.93;3.90;;;19.20;99.90;;;;;;5052545;28;20019;-69
2022/08/13 01:50:29;;;;;;;7.60;3.80;;;19.20;99.90;;;;;;5066806;28;20491;-68
2022/08/13 01:53:01;;;;;;;11.05;4.32;;;19.20;99.90;;;;;;5061675;28;20048;-67
2022/08/13 01:55:40;;;;;;;6.85;4.00;;;19.10;99.90;;;;;;5052644;28;20419;-68
2022/08/13 01:58:08;;;;;;;8.27;4.18;;;19.10;99.90;;;;;;5055759;28;20122;-68
2022/08/13 02:00:36;;;;;;;7.82;4.10;;;19.10;99.90;;;;;;5058863;28;20041;-68
2022/08/13 02:03:05;;;;;;;7.40;4.18;;;19.10;99.90;;;;;;5041426;28;20044;-69
2022/08/13 02:05:33;;;;;;;9.18;4.22;;;19.10;99.90;;;;;;5041564;28;20049;-69
2022/08/13 02:08:00;;;;;;;6.07;4.38;;;19.10;99.90;;;;;;5058944;28;20079;-68
2022/08/13 02:10:26;;;;;;;9.02;4.25;;;19.00;99.90;;;;;;5058720;28;20098;-68
2022/08/13 02:12:52;;;;;;;6.65;4.05;;;19.00;99.90;;;;;;5030073;28;20037;-67
2022/08/13 02:15:18;;;;;;;7.68;4.40;;;19.00;99.90;;;;;;5078561;28;20048;-68
2022/08/13 02:17:45;;;;;;;10.35;4.53;;;18.90;99.90;;;;;;5072964;28;20513;-68
2022/08/13 02:20:17;;;;;;;5.40;3.95;;;18.90;99.90;;;;;;5075256;28;20040;-70
2022/08/13 02:22:45;;;;;;;7.10;3.97;;;18.90;99.90;;;;;;5078135;28;20116;-68
2022/08/13 02:25:13;;;;;;;5.35;3.58;;;18.80;99.90;;;;;;5076463;28;20048;-68
2022/08/13 02:27:40;;;;;;;6.82;4.25;;;18.80;99.90;;;;;;5042648;28;20052;-68
2022/08/13 02:30:09;;;;;;;7.63;4.00;;;18.80;99.90;;;;;;5058381;28;20041;-67
2022/08/13 02:32:40;;;;;;;6.85;4.03;;;18.70;99.90;;;;;;5041117;28;20126;-67
2022/08/13 02:35:08;;;;;;;7.95;4.28;;;18.70;99.90;;;;;;5058560;28;20445;-68
2022/08/13 02:37:36;;;;;;;5.53;3.97;;;18.60;99.90;;;;;;5055107;28;20083;-68
2022/08/13 02:40:04;;;;;;;9.63;4.57;;;18.60;99.90;;;;;;5060335;28;20048;-69
2022/08/13 02:42:31;;;;;;;6.63;4.20;;;18.60;99.90;;;;;;5078304;28;20051;-68
2022/08/13 02:44:58;;;;;;;7.85;3.92;;;18.50;99.90;;;;;;5068785;28;20059;-69
2022/08/13 02:47:25;;;;;;;13.68;4.43;;;18.50;99.90;;;;;;5058876;28;20536;-68
2022/08/13 02:49:52;;;;;;;8.43;4.18;;;18.50;99.90;;;;;;5058949;28;20101;-69
2022/08/13 02:52:21;;;;;;;8.75;4.22;;;18.40;99.90;;;;;;5059299;28;20051;-68
2022/08/13 02:54:49;;;;;;;7.18;3.85;;;18.40;99.90;;;;;;5058967;28;20044;-68
2022/08/13 02:57:15;;;;;;;9.30;4.35;;;18.40;99.90;;;;;;5058936;28;20041;-68
2022/08/13 02:59:43;;;;;;;11.25;4.70;;;18.40;99.90;;;;;;5025499;28;20433;-70
2022/08/13 03:02:11;;;;;;;8.27;4.35;;;18.30;99.90;;;;;;5058954;28;20045;-68
2022/08/13 03:04:44;;;;;;;12.18;4.03;;;18.30;99.90;;;;;;5059253;28;20087;-69
2022/08/13 03:07:10;;;;;;;8.23;4.40;;;18.30;99.90;;;;;;5059076;28;20040;-69
2022/08/13 03:09:39;;;;;;;7.18;4.55;;;18.30;99.90;;;;;;5056941;28;20044;-68
2022/08/13 03:12:10;;;;;;;6.53;3.97;;;18.30;99.90;;;;;;5055484;28;20053;-68
2022/08/13 03:14:37;;;;;;;6.53;4.20;;;18.30;99.90;;;;;;5055317;28;20091;-67
2022/08/13 03:17:03;;;;;;;5.70;4.05;;;18.30;99.90;;;;;;5055395;28;20041;-68
2022/08/13 03:19:30;;;;;;;8.35;4.63;;;18.30;99.90;;;;;;5055673;28;20388;-69
2022/08/13 03:21:56;;;;;;;6.10;4.43;;;18.20;99.90;;;;;;5054875;28;20045;-69
2022/08/13 03:24:21;;;;;;;8.38;3.70;;;18.20;99.90;;;;;;5054983;28;20045;-70
2022/08/13 03:26:47;;;;;;;7.88;4.40;;;18.10;99.90;;;;;;5054904;28;20041;-68
2022/08/13 03:29:14;;;;;;;10.35;4.68;;;18.20;99.90;;;;;;5020557;28;20049;-68
2022/08/13 03:31:40;;;;;;;9.80;4.32;;;18.00;99.90;;;;;;5054629;28;20044;-68
2022/08/13 03:34:06;;;;;;;6.38;4.20;;;18.10;99.90;;;;;;5054989;28;20049;-68
2022/08/13 03:36:34;;;;;;;7.18;3.67;;;18.10;99.90;;;;;;5042416;28;20123;-68
2022/08/13 03:39:04;;;;;;;8.15;4.18;;;18.10;99.90;;;;;;5038283;28;20037;-68
2022/08/13 03:41:30;;;;;;;9.73;4.03;;;18.00;99.90;;;;;;5036976;28;20040;-70
2022/08/13 03:43:56;;;;;;;7.57;4.72;;;18.10;99.90;;;;;;5036847;28;20452;-69
2022/08/13 03:46:25;;;;;;;6.75;4.60;;;18.00;99.90;;;;;;5054527;28;20048;-69
2022/08/13 03:48:54;;;;;;;7.50;4.43;;;18.00;99.90;;;;;;5055409;28;20040;-68
2022/08/13 03:51:23;;;;;;;6.57;4.53;;;18.00;99.90;;;;;;5063162;28;20128;-68
2022/08/13 03:53:59;;;;;;;7.18;4.20;;;17.90;99.90;;;;;;5074625;28;20341;-69
2022/08/13 03:56:25;;;;;;;10.73;4.13;;;17.90;99.90;;;;;;5064528;28;20139;-68
2022/08/13 03:58:53;;;;;;;6.47;4.95;;;17.90;99.90;;;;;;5072580;28;20090;-69
2022/08/13 04:01:19;;;;;;;7.85;4.40;;;17.90;99.90;;;;;;5043769;28;20048;-68
2022/08/13 04:03:49;;;;;;;7.57;4.45;;;17.90;99.90;;;;;;5054206;28;20406;-68
2022/08/13 04:06:21;;;;;;;7.63;4.72;;;17.90;99.90;;;;;;5054075;28;20127;-68
2022/08/13 04:08:48;;;;;;;11.85;5.20;;;17.90;99.90;;;;;;5054975;28;20045;-69
2022/08/13 04:11:22;;;;;;;9.10;4.63;;;17.90;99.90;;;;;;5054448;28;20079;-68
2022/08/13 04:13:48;;;;;;;8.20;5.15;;;17.90;99.90;;;;;;5053857;28;20045;-68
2022/08/13 04:16:20;;;;;;;7.13;4.75;;;17.80;99.90;;;;;;5035669;28;20055;-68
2022/08/13 04:18:48;;;;;;;7.35;4.40;;;17.80;99.90;;;;;;5053752;28;20106;-69
2022/08/13 04:21:18;;;;;;;6.85;4.85;;;17.80;99.90;;;;;;5035914;28;20110;-68
2022/08/13 04:23:46;;;;;;;7.68;4.40;;;17.80;99.90;;;;;;5054402;28;20051;-68
2022/08/13 04:26:15;;;;;;;7.90;4.90;;;17.80;99.90;;;;;;5053793;28;20399;-68
2022/08/13 04:28:42;;;;;;;6.22;4.47;;;17.80;99.90;;;;;;5035872;28;20049;-69
2022/08/13 04:31:11;;;;;;;6.28;4.57;;;17.80;99.90;;;;;;5053485;28;20041;-71
2022/08/13 04:33:39;;;;;;;7.97;4.55;;;17.80;99.90;;;;;;5073414;28;20070;-69
2022/08/13 04:36:08;;;;;;;11.00;5.18;;;17.80;99.90;;;;;;5073572;28;20162;-68
2022/08/13 04:38:35;;;;;;;7.40;4.57;;;17.80;99.90;;;;;;5070529;28;20045;-68
2022/08/13 04:41:01;;;;;;;5.70;4.28;;;17.70;99.90;;;;;;5018999;28;20088;-69
2022/08/13 04:43:28;;;;;;;6.55;4.57;;;17.70;99.90;;;;;;5053112;28;20151;-69
2022/08/13 04:45:58;;;;;;;8.05;4.28;;;17.70;99.90;;;;;;5035575;28;20044;-68
2022/08/13 04:48:26;;;;;;;6.15;4.60;;;17.80;99.90;;;;;;5053811;28;20036;-69
2022/08/13 04:50:52;;;;;;;7.43;4.35;;;17.80;99.90;;;;;;5053106;28;20521;-68
2022/08/13 04:53:28;;;;;;;7.05;4.35;;;17.80;99.90;;;;;;5053144;28;20084;-68
2022/08/13 04:55:56;;;;;;;7.43;4.55;;;17.80;99.90;;;;;;5053417;28;20056;-68
2022/08/13 04:58:29;;;;;;;5.38;4.07;;;17.80;99.90;;;;;;5053358;28;20171;-69
2022/08/13 05:00:57;;;;;;;5.80;4.45;;;17.80;99.90;;;;;;5035289;28;20056;-69
2022/08/13 05:03:23;;;;;;;8.82;3.97;;;17.80;99.90;;;;;;5053486;28;20048;-68
2022/08/13 05:05:51;;;;;;;9.07;4.65;;;17.80;99.90;;;;;;5053024;28;20041;-69
2022/08/13 05:08:18;;;;;;;7.05;4.25;;;17.80;99.90;;;;;;5035146;28;20503;-68
2022/08/13 05:10:47;;;;;;;8.97;4.00;;;17.80;99.90;;;;;;5053012;28;20049;-69
2022/08/13 05:13:29;;;;;;;6.88;4.15;;;17.90;99.90;;;;;;5053012;28;20044;-68
2022/08/13 05:15:58;;;;;;;7.32;4.10;;;17.90;99.90;;;;;;5035438;28;20091;-70
2022/08/13 05:18:29;;;;;;;6.82;3.60;;;17.90;99.90;;;;;;5052638;28;20045;-67
2022/08/13 05:20:57;;;;;;;8.65;4.25;;;17.90;99.90;;;;;;5046684;28;20465;-69
2022/08/13 05:23:24;;;;;;;9.43;4.60;;;18.00;99.90;;;;;;5034912;28;20045;-69
2022/08/13 05:25:50;;;;;;;8.73;4.32;;;18.00;99.90;;;;;;5034737;28;20059;-68
2022/08/13 05:28:18;;;;;;;5.70;4.47;;;18.00;99.90;;;;;;5018369;28;20053;-68
2022/08/13 05:30:47;;;;;;;8.43;5.00;;;18.10;99.90;;;;;;5052984;28;20049;-67
2022/08/13 05:33:16;;;;;;;7.93;4.55;;;18.20;99.90;;;;;;5017313;28;20045;-69
2022/08/13 05:35:48;;;;;;;8.02;4.53;;;18.20;99.90;;;;;;5035175;28;20044;-68
2022/08/13 05:38:15;;;;;;;7.57;4.07;;;18.30;99.90;;;;;;5034552;28;20045;-68
2022/08/13 05:40:44;;;;;;;9.77;4.63;;;18.40;99.90;;;;;;5034826;28;20128;-69
2022/08/13 05:43:20;;;;;;;9.32;4.80;;;18.50;99.90;;;;;;5053041;28;20119;-69
2022/08/13 05:45:57;;;;;;;7.75;4.28;;;18.50;99.90;;;;;;5034585;28;20037;-68
2022/08/13 05:48:27;;;;;;;9.70;4.47;;;18.60;99.90;;;;;;5033094;28;20056;-67
2022/08/13 05:50:59;;;;;;;8.80;4.38;;;18.70;99.90;;;;;;5051017;28;20088;-67
2022/08/13 05:53:28;;;;;;;10.23;4.80;;;18.80;99.90;;;;;;5057972;28;20049;-68
2022/08/13 05:55:54;;;;;;;10.48;4.70;;;18.90;99.90;;;;;;5071282;28;20090;-69
2022/08/13 05:58:21;;;;;;;7.65;4.22;;;19.00;99.90;;;;;;5065738;28;20438;-68
2022/08/13 06:03:32;;;;;;;6.40;4.45;;;19.20;99.90;;;;;;5052412;28;20060;-68
2022/08/13 06:06:10;;;;;;;6.10;4.50;;;19.30;99.90;;;;;;5052249;28;20119;-67
2022/08/13 06:08:41;;;;;;;9.15;4.10;;;19.40;99.90;;;;;;5034401;28;20052;-69
2022/08/13 06:11:15;;;;;;;8.32;4.00;;;19.40;99.90;;;;;;5052208;28;20033;-69
2022/08/13 06:13:42;;;;;;;7.90;4.00;;;19.50;99.90;;;;;;5052670;28;20049;-68
2022/08/13 06:16:11;;;;;;;8.70;3.87;;;19.70;99.90;;;;;;5052649;28;20037;-69
2022/08/13 06:18:46;;;;;;;7.10;3.90;;;19.70;99.90;;;;;;5052541;28;20033;-67
2022/08/13 06:21:13;;;;;;;7.93;4.07;;;19.90;99.90;;;;;;5052253;28;20116;-68
2022/08/13 06:23:45;;;;;;;11.23;4.25;;;20.00;99.90;;;;;;5034228;28;20076;-69
2022/08/13 06:26:15;;;;;;;12.73;4.65;;;20.10;99.90;;;;;;5034414;28;20431;-69
2022/08/13 06:28:41;;;;;;;;;;;20.30;99.90;;;;;;5034437;28;20060;-69
2022/08/13 06:31:11;;;;;;;7.28;3.90;;;20.50;99.90;;;;;;5051843;28;19928;-68
2022/08/13 06:33:38;;;;;;;8.15;3.88;;;20.80;99.90;;;;;;5023161;28;20033;-68
2022/08/13 06:36:10;;;;;;;7.07;4.15;;;21.30;99.90;;;;;;5072077;28;20051;-68
2022/08/13 06:38:48;;;;;;;7.28;3.70;;;22.00;99.90;;;;;;5070250;28;20098;-68
2022/08/13 06:41:14;;;;;;;9.98;3.70;;;22.60;99.70;;;;;;5033910;28;20083;-68
2022/08/13 06:43:43;;;;;;;11.60;4.43;;;23.20;98.80;;;;;;5039082;28;20049;-69
2022/08/13 06:46:14;;;;;;;16.13;3.85;;;23.60;96.20;;;;;;5055525;28;20040;-69
2022/08/13 06:48:43;;;;;;;16.80;3.72;;;24.10;95.00;;;;;;5054770;28;20037;-68
2022/08/13 06:51:11;;;;;;;12.45;3.95;;;24.40;94.30;;;;;;5055297;28;20519;-68
2022/08/13 06:53:39;;;;;;;9.05;3.65;;;24.30;94.10;;;;;;5055602;28;20415;-69
2022/08/13 06:56:19;;;;;;;9.02;3.58;;;24.10;94.00;;;;;;5055660;28;20390;-68
2022/08/13 06:58:51;;;;;;;6.40;3.50;;;24.10;94.20;;;;;;5055903;28;20048;-68
2022/08/13 07:01:19;;;;;;;6.05;3.67;;;24.00;93.70;;;;;;5055558;28;20376;-69
2022/08/13 07:03:46;;;;;;;13.55;3.30;;;23.90;93.50;;;;;;5055166;28;20487;-67
2022/08/13 07:06:24;;;;;;;9.30;3.00;;;23.80;93.20;;;;;;5055580;28;20067;-66
2022/08/13 07:08:54;;;;;;;6.30;3.17;;;23.80;92.80;;;;;;5055425;28;20037;-69
2022/08/13 07:11:23;;;;;;;5.20;2.88;;;23.80;93.00;;;;;;5054914;28;20056;-67
2022/08/13 07:13:57;;;;;;;7.00;3.35;;;23.80;93.00;;;;;;5037263;28;20064;-67
2022/08/13 07:16:25;;;;;;;8.63;2.88;;;23.80;92.20;;;;;;5055299;28;20041;-67
2022/08/13 07:18:52;;;;;;;6.60;2.88;;;23.80;92.70;;;;;;5055526;28;20562;-68
2022/08/13 07:21:24;;;;;;;7.38;3.17;;;23.90;92.70;;;;;;5054514;28;20125;-67
2022/08/13 07:23:51;;;;;;;10.13;2.60;;;24.00;92.30;;;;;;5020456;28;20056;-69
2022/08/13 07:26:18;;;;;;;9.98;2.63;;;24.10;92.10;;;;;;5037743;28;20106;-67
2022/08/13 07:28:46;;;;;;;8.23;2.78;;;24.10;91.70;;;;;;5055006;28;20554;-69
2022/08/13 07:31:13;;;;;;;6.82;2.65;;;24.20;91.60;;;;;;5054829;28;20056;-68
2022/08/13 07:33:51;;;;;;;9.20;2.35;;;24.40;91.40;;;;;;5036680;28;20049;-68
2022/08/13 07:36:19;;;;;;;8.00;2.35;;;24.40;90.60;;;;;;5059300;28;20119;-69
2022/08/13 07:38:47;;;;;;;7.60;2.38;;;24.60;90.30;;;;;;5056664;28;20061;-67
2022/08/13 07:41:13;;;;;;;8.90;2.58;;;24.70;89.30;;;;;;5056901;28;20408;-68
2022/08/13 07:43:43;;;;;;;7.50;2.33;;;24.80;88.40;;;;;;5067473;28;20579;-67
2022/08/13 07:46:12;;;;;;;10.93;2.20;;;25.00;87.00;;;;;;5036981;28;20045;-67
2022/08/13 07:48:46;;;;;;;6.60;2.15;;;25.10;86.90;;;;;;5036665;28;20124;-67
2022/08/13 07:51:18;;;;;;;8.82;2.92;;;25.20;86.60;;;;;;5040271;28;20558;-67
2022/08/13 07:53:45;;;;;;;8.60;2.25;;;25.40;86.10;;;;;;5057721;28;20105;-68
2022/08/13 07:56:11;;;;;;;5.75;2.15;;;25.50;85.30;;;;;;5073498;28;20044;-68
2022/08/13 07:58:39;;;;;;;3.88;2.28;;;25.60;85.10;;;;;;5074453;28;20559;-68
2022/08/13 08:01:06;;;;;;;6.63;2.05;;;25.80;84.50;;;;;;5062202;28;20041;-67
2022/08/13 08:03:42;;;;;;;6.35;2.00;;;25.90;83.50;;;;;;5036301;28;20550;-68
2022/08/13 08:06:10;;;;;;;7.45;2.58;;;26.00;82.80;;;;;;5054391;28;20390;-69
2022/08/13 08:08:42;;;;;;;6.07;2.20;;;26.10;81.80;;;;;;5054258;28;20045;-67
2022/08/13 08:12:30;;;;;;;6.28;2.17;;;26.30;80.80;;;;;;5036242;28;20547;-67
2022/08/13 08:13:59;;;;;;;10.77;2.10;;;26.40;81.70;;;;;;5054092;28;20052;-68
2022/08/13 08:16:29;;;;;;;7.32;2.00;;;26.60;79.80;;;;;;5054163;28;20194;-67
2022/08/13 08:18:55;;;;;;;6.43;2.03;;;26.70;79.70;;;;;;5036137;28;20069;-67
2022/08/13 08:21:23;;;;;;;8.20;2.38;;;26.80;78.50;;;;;;5053845;28;20119;-67
2022/08/13 08:23:57;;;;;;;7.70;2.10;;;26.90;78.40;;;;;;5036179;28;20049;-68
2022/08/13 08:26:27;;;;;;;4.63;1.90;;;27.00;77.80;;;;;;5054084;28;20131;-68
2022/08/13 08:28:55;;;;;;;6.78;2.25;;;27.20;77.30;;;;;;5054011;28;20432;-67
2022/08/13 08:31:22;;;;;;;8.82;2.22;;;27.40;77.50;;;;;;5053967;28;20446;-66
2022/08/13 08:33:48;;;;;;;5.10;2.17;;;27.50;76.60;;;;;;5054345;28;20051;-67
2022/08/13 08:36:14;;;;;;;8.05;2.28;;;27.70;75.00;;;;;;5039314;28;20040;-66
2022/08/13 08:44:32;;;;;;;6.90;2.10;;;28.00;72.30;;;;;;5064656;28;20370;-68
2022/08/13 08:47:02;;;;;;;3.65;1.90;;;28.10;72.30;;;;;;5039423;28;20621;-67
2022/08/13 08:49:30;;;;;;;7.55;2.35;;;28.20;72.00;;;;;;5073068;28;20056;-68
2022/08/13 08:51:57;;;;;;;7.10;1.90;;;28.40;71.50;;;;;;5051229;28;20041;-68
2022/08/13 08:54:27;;;;;;;4.13;1.85;;;28.60;71.20;;;;;;5035581;28;20053;-68
2022/08/13 08:56:56;;;;;;;16.33;1.95;;;28.70;69.90;;;;;;5053031;28;20120;-66
2022/08/13 08:59:24;;;;;;;6.55;2.03;;;28.70;69.60;;;;;;5053109;28;20045;-67
2022/08/13 09:01:55;;;;;;;6.68;1.75;;;28.90;69.50;;;;;;5053675;28;20037;-67
2022/08/13 09:04:28;;;;;;;4.53;2.10;;;29.00;67.70;;;;;;5035139;28;20033;-66
2022/08/13 09:06:56;;;;;;;10.13;2.95;;;29.10;67.40;;;;;;5052954;28;20081;-67
2022/08/13 09:09:23;;;;;;;5.72;1.77;;;29.20;67.00;;;;;;5052987;28;20049;-67
2022/08/13 09:11:55;;;;;;;8.38;2.15;;;29.30;67.10;;;;;;5052893;28;20104;-66
2022/08/13 09:14:30;;;;;;;6.13;1.77;;;29.30;66.70;;;;;;5035140;28;20048;-66
2022/08/13 09:16:57;;;;;;;5.80;2.03;;;29.40;65.30;;;;;;5067076;28;20048;-67
2022/08/13 09:19:27;;;;;;;3.55;1.83;;;29.40;65.10;;;;;;5072830;28;20037;-67
2022/08/13 09:21:53;;;;;;;2.28;1.40;;;29.50;66.10;;;;;;5052380;28;20044;-68
2022/08/13 09:24:21;;;;;;;4.32;1.55;;;29.60;65.90;;;;;;5053218;28;20102;-68
2022/08/13 09:26:51;;;;;;;8.25;1.80;;;29.70;65.90;;;;;;5052736;28;20081;-68
2022/08/13 09:29:19;;;;;;;2.92;1.55;;;29.80;64.90;;;;;;5052717;28;20063;-68
2022/08/13 09:31:50;;;;;;;8.57;1.85;;;29.90;64.30;;;;;;5052623;28;20506;-67
2022/08/13 09:34:17;;;;;;;3.80;1.90;;;30.00;63.20;;;;;;5017437;28;20053;-68
2022/08/13 09:36:45;;;;;;;3.67;1.95;;;30.00;62.60;;;;;;5041923;28;20139;-67
2022/08/13 09:39:31;;;;;;;3.83;1.50;;;30.10;63.40;;;;;;5053801;28;20484;-66
2022/08/13 09:42:00;;;;;;;2.85;1.60;;;30.20;63.20;;;;;;5052376;28;20047;-65
2022/08/13 09:44:26;;;;;;;9.23;1.92;;;30.20;61.50;;;;;;5034877;28;20183;-67
2022/08/13 09:46:52;;;;;;;5.32;1.75;;;30.30;61.50;;;;;;5050828;28;20102;-68
2022/08/13 09:49:21;;;;;;;27.30;2.20;;;30.30;61.00;;;;;;5052472;28;20037;-68
2022/08/13 09:51:47;;;;;;;17.55;1.80;;;30.30;59.50;;;;;;5052164;28;20048;-66
2022/08/13 09:54:14;;;;;;;6.47;1.60;;;30.40;60.60;;;;;;5053110;28;20049;-69
2022/08/13 09:56:39;;;;;;;4.85;1.73;;;30.40;60.30;;;;;;5052225;28;20116;-67
2022/08/13 09:59:06;;;;;;;9.10;1.70;;;30.60;60.40;;;;;;5052485;28;20129;-68
2022/08/13 10:01:34;;;;;;;;;;;30.70;60.50;;;;;;5053260;28;20044;-67
2022/08/13 10:03:59;;;;;;;7.60;1.90;;;30.80;60.40;;;;;;5034102;28;19920;-66
2022/08/13 10:06:28;;;;;;;4.93;1.50;;;30.90;59.80;;;;;;5060988;28;20037;-67
2022/08/13 10:08:55;;;;;;;5.60;1.48;;;31.00;59.60;;;;;;5034255;28;20095;-68
2022/08/13 10:11:24;;;;;;;4.70;1.60;;;31.00;58.50;;;;;;5034355;28;20049;-68
2022/08/13 10:13:50;;;;;;;7.72;2.00;;;31.00;58.40;;;;;;5034464;28;20091;-67
2022/08/13 10:16:15;;;;;;;10.50;1.80;;;31.00;57.70;;;;;;5042759;28;20487;-67
2022/08/13 10:18:42;;;;;;;3.67;1.60;;;31.00;57.30;;;;;;5072657;28;20044;-67
2022/08/13 10:21:10;;;;;;;4.63;1.67;;;31.10;57.80;;;;;;5076081;28;20059;-66
2022/08/13 10:23:36;;;;;;;8.05;1.77;;;31.20;57.50;;;;;;5057720;28;20045;-67
2022/08/13 10:26:02;;;;;;;2.17;1.42;;;31.30;57.90;;;;;;5076136;28;20041;-67
2022/08/13 10:28:34;;;;;;;5.80;1.60;;;31.50;57.30;;;;;;5058184;28;20040;-67
2022/08/13 10:31:09;;;;;;;4.75;1.65;;;31.60;56.70;;;;;;5075842;28;20072;-67
2022/08/13 10:33:36;;;;;;;5.78;2.10;;;31.80;56.80;;;;;;5055852;28;20052;-66
2022/08/13 10:36:05;;;;;;;2.53;1.40;;;31.90;56.60;;;;;;5058124;28;20036;-67
2022/08/13 10:38:32;;;;;;;3.15;1.50;;;32.10;56.10;;;;;;5075464;28;20057;-68
2022/08/13 10:41:01;;;;;;;;;;;32.40;56.20;;;;;;5064566;28;20049;-68
2022/08/13 10:43:27;;;;;;;6.07;1.58;;;32.50;54.40;;;;;;5055874;28;19920;-69
2022/08/13 10:45:59;;;;;;;1.90;1.38;;;32.70;56.40;;;;;;5054620;28;20053;-67
2022/08/13 10:48:26;;;;;;;3.35;1.50;;;32.90;55.50;;;;;;5055629;28;20072;-67
2022/08/13 10:50:56;;;;;;;3.50;1.63;;;33.10;54.40;;;;;;5037533;28;20092;-69
2022/08/13 10:56:08;;;;;;;4.28;1.42;;;33.60;53.90;;;;;;5040620;28;20049;-67
2022/08/13 10:58:35;;;;;;;4.90;1.48;;;33.70;53.30;;;;;;5055477;28;20048;-68
2022/08/13 11:01:02;;;;;;;4.45;1.70;;;33.80;52.30;;;;;;5055717;28;20040;-68
2022/08/13 11:03:34;;;;;;;3.10;1.50;;;34.00;52.80;;;;;;5055437;28;20108;-67
2022/08/13 11:06:02;;;;;;;4.10;1.35;;;34.10;51.90;;;;;;5054153;28;20041;-67
2022/08/13 11:08:31;;;;;;;6.35;1.60;;;34.30;51.70;;;;;;5055513;28;20049;-68
2022/08/13 11:10:57;;;;;;;5.15;1.40;;;34.30;52.00;;;;;;5037170;28;20045;-67
2022/08/13 11:13:23;;;;;;;2.78;1.38;;;34.40;51.60;;;;;;5055033;28;20060;-67
2022/08/13 11:15:48;;;;;;;5.70;1.50;;;34.50;51.40;;;;;;5055148;28;20164;-67
2022/08/13 11:18:14;;;;;;;4.27;1.77;;;34.30;51.00;;;;;;5055597;28;20510;-67
2022/08/13 11:23:24;;;;;;;5.00;1.40;;;34.60;51.30;;;;;;5075155;28;20162;-67
2022/08/13 11:25:50;;;;;;;2.60;1.40;;;34.70;51.20;;;;;;5074897;28;20498;-67
2022/08/13 11:28:16;;;;;;;4.10;1.43;;;34.80;51.00;;;;;;5065390;28;20627;-68
2022/08/13 11:30:41;;;;;;;4.23;1.60;;;34.90;50.60;;;;;;5035456;28;20052;-68
2022/08/13 11:33:07;;;;;;;4.47;1.60;;;34.90;50.30;;;;;;5055547;28;20306;-68
2022/08/13 11:35:34;;;;;;;3.97;1.50;;;34.90;50.60;;;;;;5054959;28;20045;-68
2022/08/13 11:38:10;;;;;;;12.05;1.80;;;34.70;50.00;;;;;;5035638;28;20123;-67
2022/08/13 11:40:37;;;;;;;3.87;1.50;;;34.60;49.60;;;;;;5055035;28;20056;-65
2022/08/13 11:43:02;;;;;;;4.93;1.60;;;34.80;50.20;;;;;;5054520;28;20399;-68
2022/08/13 11:45:28;;;;;;;5.97;1.43;;;34.90;50.00;;;;;;5054532;28;20052;-67
2022/08/13 11:47:54;;;;;;;4.10;1.60;;;34.90;49.60;;;;;;5037061;28;20304;-68
2022/08/13 11:50:19;;;;;;;4.67;1.50;;;34.90;48.90;;;;;;5054470;28;20040;-68
2022/08/13 11:52:45;;;;;;;2.80;1.40;;;34.90;49.40;;;;;;5054336;28;20079;-67
2022/08/13 11:55:11;;;;;;;2.40;1.40;;;35.00;49.60;;;;;;5054921;28;20491;-67
2022/08/13 11:57:44;;;;;;;5.00;1.63;;;35.00;48.40;;;;;;5070568;28;20544;-68
2022/08/13 12:00:10;;;;;;;12.05;1.70;;;35.00;48.20;;;;;;5074459;28;20032;-67
2022/08/13 12:02:36;;;;;;;7.45;1.50;;;34.80;48.10;;;;;;5039931;28;20049;-67
2022/08/13 12:05:02;;;;;;;6.47;1.75;;;34.80;48.80;;;;;;5048910;28;20045;-68
2022/08/13 12:07:27;;;;;;;4.45;1.73;;;34.80;48.90;;;;;;5059257;28;20070;-67
2022/08/13 12:09:54;;;;;;;3.33;1.63;;;34.60;48.50;;;;;;5057066;28;20041;-68
2022/08/13 12:12:20;;;;;;;2.47;1.70;;;34.60;48.80;;;;;;5054481;28;20120;-67
2022/08/13 12:14:46;;;;;;;4.00;1.50;;;34.60;48.30;;;;;;5053180;28;20120;-67
2022/08/13 12:17:12;;;;;;;4.37;1.70;;;34.60;48.30;;;;;;5020086;28;20287;-67
2022/08/13 12:19:37;;;;;;;5.20;1.53;;;34.50;48.10;;;;;;5054384;28;20086;-68
2022/08/13 12:22:04;;;;;;;6.00;1.50;;;34.50;48.40;;;;;;5036765;28;20048;-67
2022/08/13 12:24:30;;;;;;;7.85;1.70;;;34.30;48.20;;;;;;5054843;28;20049;-67
2022/08/13 12:26:56;;;;;;;6.83;1.50;;;34.10;47.30;;;;;;5054224;28;20052;-69
2022/08/13 12:29:22;;;;;;;2.67;1.67;;;33.90;48.30;;;;;;5036588;28;20045;-68
2022/08/13 12:31:48;;;;;;;14.13;2.27;;;33.90;48.50;;;;;;5035821;28;20506;-67
2022/08/13 12:34:13;;;;;;;6.35;1.60;;;34.00;48.80;;;;;;5053452;28;20483;-67
2022/08/13 12:36:39;;;;;;;4.77;1.50;;;34.10;48.00;;;;;;5060835;28;20066;-66
2022/08/13 12:39:05;;;;;;;3.40;1.80;;;34.30;47.50;;;;;;5055564;28;20048;-68
2022/08/13 12:41:32;;;;;;;2.50;1.50;;;34.50;47.70;;;;;;5073313;28;20044;-67
2022/08/13 12:43:57;;;;;;;5.47;1.42;;;34.60;47.30;;;;;;5039740;28;20067;-67
2022/08/13 12:46:24;;;;;;;4.33;1.50;;;34.70;47.70;;;;;;5053269;28;20041;-68
2022/08/13 12:48:50;;;;;;;2.03;1.40;;;34.80;47.00;;;;;;5053411;28;20068;-68
2022/08/13 12:51:18;;;;;;;7.70;1.73;;;34.90;47.40;;;;;;5036136;28;20045;-67
2022/08/13 12:53:44;;;;;;;17.07;1.50;;;34.90;47.50;;;;;;5053435;28;20124;-67
2022/08/13 12:56:11;;;;;;;2.20;1.40;;;35.00;47.40;;;;;;5035248;28;20110;-67
2022/08/13 12:58:40;;;;;;;7.05;1.58;;;34.90;47.60;;;;;;5035419;28;20147;-69
2022/08/13 13:01:12;;;;;;;4.20;1.73;;;34.80;47.50;;;;;;5019401;28;20048;-68
2022/08/13 13:03:37;;;;;;;2.70;1.65;;;34.70;47.60;;;;;;5053019;28;20111;-67
2022/08/13 13:06:03;;;;;;;3.23;1.90;;;34.50;48.30;;;;;;5053243;28;20487;-67
2022/08/13 13:08:31;;;;;;;2.87;1.67;;;34.50;48.20;;;;;;5053236;28;20040;-65
2022/08/13 13:11:00;;;;;;;6.75;1.85;;;34.70;48.30;;;;;;5035018;28;20123;-67